F/V Fleur Des Vagues — FPEJ — position and weather

sailwx.info

Track history (hours):
 
Tides and Currents Weather Stations Pressure Air Temp Water Temp Dewpoint Dewpoint Depression Visibility Wind Speed Wind Dir Waves Ship Positions

F/V Fleur Des Vagues

Last reported at 2015-Mar-16 15:34 UTC. Time now 2015-Mar-27 02:00 UTC.
Position N 46°30' W 001°47'.
Warning: this ship's position is 10 days out of date.

Length 16 m.

Type: Fishing. MMSI: 227893000.

Date/timePositionNaut miles runAvg speedWind from/ knotsBaromVisibWave heightAir tempDewpointWater temp
2015-Mar-16 15:34N 46°30' W 001°47'0 0.0
2015-Mar-16 14:34N 46°30' W 001°47'0 0.0
2015-Mar-16 13:33N 46°30' W 001°47'4 4.5
2015-Mar-16 12:33N 46°25' W 001°47'8 8.2
2015-Mar-16 11:34N 46°17' W 001°46'7 2.4
2015-Mar-16 08:27N 46°10' W 001°49'2 1.8
2015-Mar-16 07:33N 46°11' W 001°50'1 0.7
2015-Mar-16 06:33N 46°11' W 001°50'2 1.6
2015-Mar-16 05:33N 46°09' W 001°49'2 2.1
2015-Mar-16 04:32N 46°11' W 001°50'0 0.2
2015-Mar-16 03:33N 46°11' W 001°50'1 0.7
2015-Mar-16 02:33N 46°11' W 001°49'0 0.4
2015-Mar-16 01:33N 46°11' W 001°50'2 0.3
2015-Mar-15 20:22N 46°10' W 001°48'0 0.0
2015-Mar-15 19:28N 46°10' W 001°48'0 0.1
2015-Mar-15 18:33N 46°10' W 001°48'0 0.0
2015-Mar-15 17:34N 46°10' W 001°48'0 0.0
2015-Mar-15 16:33N 46°10' W 001°48'0 0.1
2015-Mar-15 15:33N 46°10' W 001°48'0 0.0
2015-Mar-15 14:28N 46°10' W 001°48'1 0.4
2015-Mar-15 11:28N 46°09' W 001°46'2 1.9
2015-Mar-15 10:26N 46°10' W 001°49'1 1.5
2015-Mar-15 09:27N 46°11' W 001°48'2 2.0
2015-Mar-15 08:34N 46°09' W 001°46'3 2.9
2015-Mar-15 07:33N 46°11' W 001°50'2 1.6
2015-Mar-15 06:26N 46°10' W 001°48'2 2.5
2015-Mar-15 05:32N 46°11' W 001°50'1 1.3
2015-Mar-15 04:33N 46°11' W 001°49'1 0.8
2015-Mar-15 03:33N 46°11' W 001°50'2 1.5
2015-Mar-15 02:19N 46°10' W 001°48'1 1.2
2015-Mar-15 01:33N 46°10' W 001°46'0 0.0
2015-Mar-14 13:29N 46°10' W 001°47'1 1.1
2015-Mar-14 12:33N 46°09' W 001°46'1 1.1
2015-Mar-14 11:33N 46°10' W 001°46'1 0.9
2015-Mar-14 10:33N 46°10' W 001°47'2 1.8
2015-Mar-14 09:34N 46°09' W 001°46'4 3.5
2015-Mar-14 08:34N 46°11' W 001°49'3 2.6
2015-Mar-14 07:33N 46°09' W 001°47'3 2.4
2015-Mar-14 06:24N 46°11' W 001°50'2 1.9
2015-Mar-14 05:26N 46°10' W 001°48'1 1.0
2015-Mar-14 04:33N 46°09' W 001°48'0 0.1
2015-Mar-14 03:32N 46°09' W 001°47'1 0.0
2015-Mar-13 12:25N 46°10' W 001°47'2 1.5
2015-Mar-13 11:12N 46°08' W 001°46'1 1.7
2015-Mar-13 10:33N 46°09' W 001°46'3 1.0
2015-Mar-13 08:07N 46°11' W 001°49'1 1.7
2015-Mar-13 07:23N 46°10' W 001°48'1 1.7
2015-Mar-13 06:33N 46°09' W 001°47'2 2.1
2015-Mar-13 05:33N 46°10' W 001°49'2 1.9
2015-Mar-13 04:32N 46°09' W 001°47'2 1.9
2015-Mar-13 03:34N 46°10' W 001°47'1 0.6
2015-Mar-13 02:33N 46°10' W 001°47'0 0.4
2015-Mar-13 01:24N 46°10' W 001°47'8 9.4
2015-Mar-13 00:34N 46°18' W 001°47'9 9.2
2015-Mar-12 23:34N 46°27' W 001°47'3 2.7
2015-Mar-12 22:34N 46°30' W 001°47'0 0.0
2015-Mar-12 21:34N 46°30' W 001°47'0 0.0
2015-Mar-12 20:33N 46°30' W 001°47'0 0.0
2015-Mar-12 19:34N 46°30' W 001°47'0 0.0
2015-Mar-12 18:34N 46°30' W 001°47'0 0.0
2015-Mar-12 17:33N 46°30' W 001°47'0 0.0
2015-Mar-12 16:34N 46°30' W 001°47'0 0.0
2015-Mar-12 15:33N 46°30' W 001°47'0 0.0
2015-Mar-12 14:33N 46°30' W 001°47'0 0.0
2015-Mar-12 13:33N 46°30' W 001°47'7 6.6
2015-Mar-12 12:34N 46°23' W 001°47'9 8.7
2015-Mar-12 11:34N 46°15' W 001°47'6 5.7
2015-Mar-12 10:33N 46°09' W 001°46'3 1.2
2015-Mar-12 08:29N 46°11' W 001°48'1 0.8
2015-Mar-12 07:34N 46°11' W 001°49'3 0.5
2015-Mar-12 02:28N 46°09' W 001°46'1 1.4
2015-Mar-12 01:31N 46°08' W 001°45'2 1.6
2015-Mar-12 00:34N 46°10' W 001°46'2 2.0
2015-Mar-11 23:30N 46°08' W 001°44'2 0.2
2015-Mar-11 12:18N 46°09' W 001°46'2 1.5
2015-Mar-11 11:17N 46°08' W 001°45'3 1.6
2015-Mar-11 09:10N 46°11' W 001°46'1 1.1
2015-Mar-11 08:23N 46°11' W 001°47'2 2.2
2015-Mar-11 07:20N 46°10' W 001°51'2 2.4
2015-Mar-11 06:33N 46°10' W 001°48'0 0.2
2015-Mar-11 04:30N 46°09' W 001°48'1 0.5
2015-Mar-11 03:24N 46°10' W 001°48'2 1.8
2015-Mar-11 02:33N 46°09' W 001°46'1 0.7
2015-Mar-11 00:33N 46°10' W 001°47'2 1.7
2015-Mar-10 23:11N 46°08' W 001°45'0 0.0
2015-Mar-10 18:27N 46°08' W 001°45'0 0.1
2015-Mar-10 17:30N 46°08' W 001°45'0 0.0
2015-Mar-10 16:33N 46°08' W 001°45'0 0.0
2015-Mar-10 15:28N 46°08' W 001°45'3 0.8
2015-Mar-10 11:33N 46°11' W 001°47'1 1.1
2015-Mar-10 10:29N 46°10' W 001°48'10 2.4
2015-Mar-10 06:26N 46°13' W 002°00'1 1.2
2015-Mar-10 05:33N 46°13' W 001°60'3 1.5
2015-Mar-10 03:22N 46°15' W 002°02'1 1.8
2015-Mar-10 02:33N 46°14' W 002°01'2 1.6
2015-Mar-10 01:06N 46°15' W 001°57'5 9.0
2015-Mar-10 00:33N 46°19' W 001°54'9 9.3
2015-Mar-09 23:34N 46°27' W 001°48'3 2.7
2015-Mar-09 22:33N 46°30' W 001°47'0 0.0
2015-Mar-09 21:33N 46°30' W 001°47'0 0.0
2015-Mar-09 20:34N 46°30' W 001°47'0 0.0
2015-Mar-09 19:34N 46°30' W 001°47'0 0.0
2015-Mar-09 18:34N 46°30' W 001°47'0 0.0
2015-Mar-09 17:34N 46°30' W 001°47'0 0.0
2015-Mar-09 16:33N 46°30' W 001°47'0 0.0
2015-Mar-09 15:34N 46°30' W 001°47'0 0.0
2015-Mar-09 14:34N 46°30' W 001°47'0 0.0
2015-Mar-09 13:33N 46°30' W 001°47'0 0.0
2015-Mar-09 12:33N 46°30' W 001°47'0 0.0
2015-Mar-09 11:34N 46°30' W 001°47'3 3.0
2015-Mar-09 10:34N 46°27' W 001°48'9 8.8
2015-Mar-09 09:33N 46°20' W 001°55'7 2.6
2015-Mar-09 07:04N 46°13' W 001°57'3 6.0
2015-Mar-09 06:33N 46°15' W 001°53'2 2.0
2015-Mar-09 05:33N 46°17' W 001°55'1 0.6
2015-Mar-09 04:33N 46°16' W 001°54'1 0.9
2015-Mar-09 03:27N 46°16' W 001°53'2 2.0
2015-Mar-09 02:33N 46°17' W 001°54'2 1.9
2015-Mar-09 01:34N 46°16' W 001°53'0 0.4
2015-Mar-09 00:33N 46°16' W 001°52'2 1.8
2015-Mar-08 23:33N 46°17' W 001°54'0 0.0
2015-Mar-08 22:33N 46°17' W 001°54'0 0.0
2015-Mar-08 21:32N 46°17' W 001°54'0 0.0
2015-Mar-08 20:34N 46°17' W 001°54'0 0.1
2015-Mar-08 19:33N 46°17' W 001°54'0 0.0
2015-Mar-08 18:34N 46°17' W 001°54'0 0.1
2015-Mar-08 17:34N 46°17' W 001°54'0 0.0
2015-Mar-08 16:34N 46°17' W 001°54'0 0.0
2015-Mar-08 15:34N 46°17' W 001°54'0 0.1
2015-Mar-08 14:34N 46°17' W 001°54'0 0.0
2015-Mar-08 13:34N 46°17' W 001°54'2 1.8
2015-Mar-08 12:34N 46°16' W 001°53'2 2.0
2015-Mar-08 11:33N 46°17' W 001°55'6 5.2
2015-Mar-08 10:25N 46°14' W 002°02'3 1.4
2015-Mar-08 08:27N 46°17' W 002°03'2 1.7
2015-Mar-08 07:34N 46°15' W 002°02'1 0.2
2015-Mar-08 05:27N 46°16' W 002°03'0 0.4
2015-Mar-08 04:31N 46°15' W 002°03'1 0.3
2015-Mar-08 02:12N 46°16' W 002°03'5 8.0
2015-Mar-08 01:33N 46°20' W 001°59'9 8.5
2015-Mar-08 00:34N 46°26' W 001°50'4 4.4
2015-Mar-07 23:34N 46°30' W 001°47'0 0.0
2015-Mar-07 22:34N 46°30' W 001°47'0 0.0
2015-Mar-07 21:33N 46°30' W 001°47'0 0.0
2015-Mar-07 20:33N 46°30' W 001°47'0 0.0
2015-Mar-07 19:33N 46°30' W 001°47'0 0.0
2015-Mar-07 18:34N 46°30' W 001°47'0 0.0
2015-Mar-07 17:34N 46°30' W 001°47'0 0.0
2015-Mar-07 16:34N 46°30' W 001°47'0 0.0
2015-Mar-07 15:33N 46°30' W 001°47'0 0.0
2015-Mar-07 14:34N 46°30' W 001°47'0 0.0
2015-Mar-07 13:33N 46°30' W 001°47'0 0.4
2015-Mar-07 12:34N 46°30' W 001°48'9 9.1
2015-Mar-07 11:33N 46°22' W 001°55'8 8.2
2015-Mar-07 10:33N 46°15' W 002°01'1 0.6
2015-Mar-07 09:30N 46°15' W 002°02'4 4.2
2015-Mar-07 08:34N 46°12' W 001°59'6 6.1
2015-Mar-07 07:33N 46°06' W 001°54'2 1.7
2015-Mar-07 06:33N 46°05' W 001°54'1 1.0
2015-Mar-07 05:33N 46°06' W 001°54'2 1.6
2015-Mar-07 04:33N 46°04' W 001°54'1 1.3
2015-Mar-07 03:33N 46°05' W 001°53'4 3.8
2015-Mar-07 02:34N 46°02' W 001°53'1 0.9
2015-Mar-07 01:33N 46°01' W 001°53'1 0.5
2015-Mar-07 00:31N 46°00' W 001°53'1 0.7
2015-Mar-06 23:31N 46°01' W 001°53'  
Track history (hours):
 
Tides and Currents Weather Stations Pressure Air Temp Water Temp Dewpoint Dewpoint Depression Visibility Wind Speed Wind Dir Waves Ship Positions

F/V Fleur Des Vagues

Last reported at 2015-Mar-16 15:34 UTC. Time now 2015-Mar-27 02:00 UTC.
Position N 46°30' W 001°47'.
Warning: this ship's position is 10 days out of date.

Length 16 m.

Type: Fishing. MMSI: 227893000.

Date/timePositionNaut miles runAvg speedWind from/ knotsBaromVisibWave heightAir tempDewpointWater temp
2015-Mar-16 15:34N 46°30' W 001°47'0 0.0
2015-Mar-16 14:34N 46°30' W 001°47'0 0.0
2015-Mar-16 13:33N 46°30' W 001°47'4 4.5
2015-Mar-16 12:33N 46°25' W 001°47'8 8.2
2015-Mar-16 11:34N 46°17' W 001°46'7 2.4
2015-Mar-16 08:27N 46°10' W 001°49'2 1.8
2015-Mar-16 07:33N 46°11' W 001°50'1 0.7
2015-Mar-16 06:33N 46°11' W 001°50'2 1.6
2015-Mar-16 05:33N 46°09' W 001°49'2 2.1
2015-Mar-16 04:32N 46°11' W 001°50'0 0.2
2015-Mar-16 03:33N 46°11' W 001°50'1 0.7
2015-Mar-16 02:33N 46°11' W 001°49'0 0.4
2015-Mar-16 01:33N 46°11' W 001°50'2 0.3
2015-Mar-15 20:22N 46°10' W 001°48'0 0.0
2015-Mar-15 19:28N 46°10' W 001°48'0 0.1
2015-Mar-15 18:33N 46°10' W 001°48'0 0.0
2015-Mar-15 17:34N 46°10' W 001°48'0 0.0
2015-Mar-15 16:33N 46°10' W 001°48'0 0.1
2015-Mar-15 15:33N 46°10' W 001°48'0 0.0
2015-Mar-15 14:28N 46°10' W 001°48'1 0.4
2015-Mar-15 11:28N 46°09' W 001°46'2 1.9
2015-Mar-15 10:26N 46°10' W 001°49'1 1.5
2015-Mar-15 09:27N 46°11' W 001°48'2 2.0
2015-Mar-15 08:34N 46°09' W 001°46'3 2.9
2015-Mar-15 07:33N 46°11' W 001°50'2 1.6
2015-Mar-15 06:26N 46°10' W 001°48'2 2.5
2015-Mar-15 05:32N 46°11' W 001°50'1 1.3
2015-Mar-15 04:33N 46°11' W 001°49'1 0.8
2015-Mar-15 03:33N 46°11' W 001°50'2 1.5
2015-Mar-15 02:19N 46°10' W 001°48'1 1.2
2015-Mar-15 01:33N 46°10' W 001°46'0 0.0
2015-Mar-14 13:29N 46°10' W 001°47'1 1.1
2015-Mar-14 12:33N 46°09' W 001°46'1 1.1
2015-Mar-14 11:33N 46°10' W 001°46'1 0.9
2015-Mar-14 10:33N 46°10' W 001°47'2 1.8
2015-Mar-14 09:34N 46°09' W 001°46'4 3.5
2015-Mar-14 08:34N 46°11' W 001°49'3 2.6
2015-Mar-14 07:33N 46°09' W 001°47'3 2.4
2015-Mar-14 06:24N 46°11' W 001°50'2 1.9
2015-Mar-14 05:26N 46°10' W 001°48'1 1.0
2015-Mar-14 04:33N 46°09' W 001°48'0 0.1
2015-Mar-14 03:32N 46°09' W 001°47'1 0.0
2015-Mar-13 12:25N 46°10' W 001°47'2 1.5
2015-Mar-13 11:12N 46°08' W 001°46'1 1.7
2015-Mar-13 10:33N 46°09' W 001°46'3 1.0
2015-Mar-13 08:07N 46°11' W 001°49'1 1.7
2015-Mar-13 07:23N 46°10' W 001°48'1 1.7
2015-Mar-13 06:33N 46°09' W 001°47'2 2.1
2015-Mar-13 05:33N 46°10' W 001°49'2 1.9
2015-Mar-13 04:32N 46°09' W 001°47'2 1.9
2015-Mar-13 03:34N 46°10' W 001°47'1 0.6
2015-Mar-13 02:33N 46°10' W 001°47'0 0.4
2015-Mar-13 01:24N 46°10' W 001°47'8 9.4
2015-Mar-13 00:34N 46°18' W 001°47'9 9.2
2015-Mar-12 23:34N 46°27' W 001°47'3 2.7
2015-Mar-12 22:34N 46°30' W 001°47'0 0.0
2015-Mar-12 21:34N 46°30' W 001°47'0 0.0
2015-Mar-12 20:33N 46°30' W 001°47'0 0.0
2015-Mar-12 19:34N 46°30' W 001°47'0 0.0
2015-Mar-12 18:34N 46°30' W 001°47'0 0.0
2015-Mar-12 17:33N 46°30' W 001°47'0 0.0
2015-Mar-12 16:34N 46°30' W 001°47'0 0.0
2015-Mar-12 15:33N 46°30' W 001°47'0 0.0
2015-Mar-12 14:33N 46°30' W 001°47'0 0.0
2015-Mar-12 13:33N 46°30' W 001°47'7 6.6
2015-Mar-12 12:34N 46°23' W 001°47'9 8.7
2015-Mar-12 11:34N 46°15' W 001°47'6 5.7
2015-Mar-12 10:33N 46°09' W 001°46'3 1.2
2015-Mar-12 08:29N 46°11' W 001°48'1 0.8
2015-Mar-12 07:34N 46°11' W 001°49'3 0.5
2015-Mar-12 02:28N 46°09' W 001°46'1 1.4
2015-Mar-12 01:31N 46°08' W 001°45'2 1.6
2015-Mar-12 00:34N 46°10' W 001°46'2 2.0
2015-Mar-11 23:30N 46°08' W 001°44'2 0.2
2015-Mar-11 12:18N 46°09' W 001°46'2 1.5
2015-Mar-11 11:17N 46°08' W 001°45'3 1.6
2015-Mar-11 09:10N 46°11' W 001°46'1 1.1
2015-Mar-11 08:23N 46°11' W 001°47'2 2.2
2015-Mar-11 07:20N 46°10' W 001°51'2 2.4
2015-Mar-11 06:33N 46°10' W 001°48'0 0.2
2015-Mar-11 04:30N 46°09' W 001°48'1 0.5
2015-Mar-11 03:24N 46°10' W 001°48'2 1.8
2015-Mar-11 02:33N 46°09' W 001°46'1 0.7
2015-Mar-11 00:33N 46°10' W 001°47'2 1.7
2015-Mar-10 23:11N 46°08' W 001°45'0 0.0
2015-Mar-10 18:27N 46°08' W 001°45'0 0.1
2015-Mar-10 17:30N 46°08' W 001°45'0 0.0
2015-Mar-10 16:33N 46°08' W 001°45'0 0.0
2015-Mar-10 15:28N 46°08' W 001°45'3 0.8
2015-Mar-10 11:33N 46°11' W 001°47'1 1.1
2015-Mar-10 10:29N 46°10' W 001°48'10 2.4
2015-Mar-10 06:26N 46°13' W 002°00'1 1.2
2015-Mar-10 05:33N 46°13' W 001°60'3 1.5
2015-Mar-10 03:22N 46°15' W 002°02'1 1.8
2015-Mar-10 02:33N 46°14' W 002°01'2 1.6
2015-Mar-10 01:06N 46°15' W 001°57'5 9.0
2015-Mar-10 00:33N 46°19' W 001°54'9 9.3
2015-Mar-09 23:34N 46°27' W 001°48'3 2.7
2015-Mar-09 22:33N 46°30' W 001°47'0 0.0
2015-Mar-09 21:33N 46°30' W 001°47'0 0.0
2015-Mar-09 20:34N 46°30' W 001°47'0 0.0
2015-Mar-09 19:34N 46°30' W 001°47'0 0.0
2015-Mar-09 18:34N 46°30' W 001°47'0 0.0
2015-Mar-09 17:34N 46°30' W 001°47'0 0.0
2015-Mar-09 16:33N 46°30' W 001°47'0 0.0
2015-Mar-09 15:34N 46°30' W 001°47'0 0.0
2015-Mar-09 14:34N 46°30' W 001°47'0 0.0
2015-Mar-09 13:33N 46°30' W 001°47'0 0.0
2015-Mar-09 12:33N 46°30' W 001°47'0 0.0
2015-Mar-09 11:34N 46°30' W 001°47'3 3.0
2015-Mar-09 10:34N 46°27' W 001°48'9 8.8
2015-Mar-09 09:33N 46°20' W 001°55'7 2.6
2015-Mar-09 07:04N 46°13' W 001°57'3 6.0
2015-Mar-09 06:33N 46°15' W 001°53'2 2.0
2015-Mar-09 05:33N 46°17' W 001°55'1 0.6
2015-Mar-09 04:33N 46°16' W 001°54'1 0.9
2015-Mar-09 03:27N 46°16' W 001°53'2 2.0
2015-Mar-09 02:33N 46°17' W 001°54'2 1.9
2015-Mar-09 01:34N 46°16' W 001°53'0 0.4
2015-Mar-09 00:33N 46°16' W 001°52'2 1.8
2015-Mar-08 23:33N 46°17' W 001°54'0 0.0
2015-Mar-08 22:33N 46°17' W 001°54'0 0.0
2015-Mar-08 21:32N 46°17' W 001°54'0 0.0
2015-Mar-08 20:34N 46°17' W 001°54'0 0.1
2015-Mar-08 19:33N 46°17' W 001°54'0 0.0
2015-Mar-08 18:34N 46°17' W 001°54'0 0.1
2015-Mar-08 17:34N 46°17' W 001°54'0 0.0
2015-Mar-08 16:34N 46°17' W 001°54'0 0.0
2015-Mar-08 15:34N 46°17' W 001°54'0 0.1
2015-Mar-08 14:34N 46°17' W 001°54'0 0.0
2015-Mar-08 13:34N 46°17' W 001°54'2 1.8
2015-Mar-08 12:34N 46°16' W 001°53'2 2.0
2015-Mar-08 11:33N 46°17' W 001°55'6 5.2
2015-Mar-08 10:25N 46°14' W 002°02'3 1.4
2015-Mar-08 08:27N 46°17' W 002°03'2 1.7
2015-Mar-08 07:34N 46°15' W 002°02'1 0.2
2015-Mar-08 05:27N 46°16' W 002°03'0 0.4
2015-Mar-08 04:31N 46°15' W 002°03'1 0.3
2015-Mar-08 02:12N 46°16' W 002°03'5 8.0
2015-Mar-08 01:33N 46°20' W 001°59'9 8.5
2015-Mar-08 00:34N 46°26' W 001°50'4 4.4
2015-Mar-07 23:34N 46°30' W 001°47'0 0.0
2015-Mar-07 22:34N 46°30' W 001°47'0 0.0
2015-Mar-07 21:33N 46°30' W 001°47'0 0.0
2015-Mar-07 20:33N 46°30' W 001°47'0 0.0
2015-Mar-07 19:33N 46°30' W 001°47'0 0.0
2015-Mar-07 18:34N 46°30' W 001°47'0 0.0
2015-Mar-07 17:34N 46°30' W 001°47'0 0.0
2015-Mar-07 16:34N 46°30' W 001°47'0 0.0
2015-Mar-07 15:33N 46°30' W 001°47'0 0.0
2015-Mar-07 14:34N 46°30' W 001°47'0 0.0
2015-Mar-07 13:33N 46°30' W 001°47'0 0.4
2015-Mar-07 12:34N 46°30' W 001°48'9 9.1
2015-Mar-07 11:33N 46°22' W 001°55'8 8.2
2015-Mar-07 10:33N 46°15' W 002°01'1 0.6
2015-Mar-07 09:30N 46°15' W 002°02'4 4.2
2015-Mar-07 08:34N 46°12' W 001°59'6 6.1
2015-Mar-07 07:33N 46°06' W 001°54'2 1.7
2015-Mar-07 06:33N 46°05' W 001°54'1 1.0
2015-Mar-07 05:33N 46°06' W 001°54'2 1.6
2015-Mar-07 04:33N 46°04' W 001°54'1 1.3
2015-Mar-07 03:33N 46°05' W 001°53'4 3.8
2015-Mar-07 02:34N 46°02' W 001°53'1 0.9
2015-Mar-07 01:33N 46°01' W 001°53'1 0.5
2015-Mar-07 00:31N 46°00' W 001°53'1 0.7
2015-Mar-06 23:31N 46°01' W 001°53'  

Dump ship's entire track history